PWSweather.com
Personal Weather Stations
Station Observations
MEREWETHER
MerewetherAU

MerewetherAU

Lat: -32.945, Lon: 151.756

Elevation: 180

Station Type: Davis Vantage Pro

Latest ConditionsUpdated 11:41:17 AM GMT+10:10 Thursday, Sep 20, 2018
Currently Today's Max Today's Min Today's Average
Temperature 58.1°F14.5°C 61.5°F16.4°C 55.8°F13.2°C 57.7°F14.3°C
Dew Point 49.9°F9.9°C 51.4°F10.8°C 43.2°F6.2°C 48.4°F9.1°C
Winds 9.0 mph SSW14.5 kmh SSW 12.0 mph -19.3 kmh - - 6.1 mph 9.8 kmh
Wind Gusts 18.0 mph29.0 kmh 20.0 mph32.2 kmh - -
Humidity 74% 80% 52% 72%
Pressure 30.09 in1019.0 mb 30.09 in1019.0 mb 29.95 in1014.2 mb -
Precipitation - 0.02 in0.5 mm - -
Hour Temp Dew Point Humidity Winds Wind Gusts Pressure Precip Precip Rate Daily Precip Total
11:41 AM 58.1°F14.5°C 49.9°F9.9°C 74% 9.0 mph SSW14.5 kmh SSW 18.0 mph29.0 kmh 30.09 in1019.0 mb 0.00 in0.0 mm 0.00 in0.0 mm 0.02 in0.5 mm
11:31 AM 58.2°F14.6°C 50.0°F10.0°C 74% 9.0 mph SSE14.5 kmh SSE 19.0 mph30.6 kmh 30.09 in1019.0 mb 0.00 in0.0 mm 0.00 in0.0 mm 0.02 in0.5 mm
11:21 AM 58.4°F14.7°C 50.1°F10.1°C 74% 7.0 mph SW11.3 kmh SW 19.0 mph30.6 kmh 30.09 in1019.0 mb 0.00 in0.0 mm 0.00 in0.0 mm 0.02 in0.5 mm
11:11 AM 58.1°F14.5°C 49.9°F9.9°C 74% 12.0 mph S19.3 kmh S 19.0 mph30.6 kmh 30.08 in1018.6 mb 0.00 in0.0 mm 0.00 in0.0 mm 0.02 in0.5 mm
11:01 AM 58.3°F14.6°C 50.0°F10.0°C 74% 7.0 mph S11.3 kmh S 19.0 mph30.6 kmh 30.08 in1018.6 mb 0.00 in0.0 mm 0.00 in0.0 mm 0.02 in0.5 mm
10:51 AM 58.5°F14.7°C 49.9°F9.9°C 73% 8.0 mph SW12.9 kmh SW 20.0 mph32.2 kmh 30.08 in1018.6 mb 0.00 in0.0 mm 0.00 in0.0 mm 0.02 in0.5 mm
10:41 AM 57.8°F14.3°C 49.2°F9.6°C 73% 11.0 mph S17.7 kmh S 20.0 mph32.2 kmh 30.08 in1018.6 mb 0.00 in0.0 mm 0.00 in0.0 mm 0.02 in0.5 mm
10:31 AM 57.7°F14.3°C 49.5°F9.7°C 74% 11.0 mph S17.7 kmh S 20.0 mph32.2 kmh 30.07 in1018.3 mb 0.00 in0.0 mm 0.00 in0.0 mm 0.02 in0.5 mm
10:21 AM 57.9°F14.4°C 49.7°F9.8°C 74% 7.0 mph SSE11.3 kmh SSE 20.0 mph32.2 kmh 30.07 in1018.3 mb 0.00 in0.0 mm 0.00 in0.0 mm 0.02 in0.5 mm
10:11 AM 58.1°F14.5°C 50.6°F10.3°C 76% 3.0 mph S4.8 kmh S 17.0 mph27.4 kmh 30.07 in1018.3 mb 0.00 in0.0 mm 0.00 in0.0 mm 0.02 in0.5 mm
10:01 AM 58.0°F14.4°C 50.5°F10.3°C 76% 8.0 mph S12.9 kmh S 19.0 mph30.6 kmh 30.07 in1018.3 mb 0.00 in0.0 mm 0.00 in0.0 mm 0.02 in0.5 mm
09:51 AM 57.7°F14.3°C 49.8°F9.9°C 75% 4.0 mph S6.4 kmh S 19.0 mph30.6 kmh 30.07 in1018.3 mb 0.00 in0.0 mm 0.00 in0.0 mm 0.02 in0.5 mm
09:41 AM 58.0°F14.4°C 50.5°F10.3°C 76% 7.0 mph SE11.3 kmh SE 17.0 mph27.4 kmh 30.07 in1018.3 mb 0.00 in0.0 mm 0.00 in0.0 mm 0.02 in0.5 mm
09:31 AM 57.6°F14.2°C 50.1°F10.1°C 76% 5.0 mph SSE8.0 kmh SSE 17.0 mph27.4 kmh 30.06 in1017.9 mb 0.00 in0.0 mm 0.00 in0.0 mm 0.02 in0.5 mm
09:21 AM 57.5°F14.2°C 50.0°F10.0°C 76% 9.0 mph S14.5 kmh S 16.0 mph25.7 kmh 30.06 in1017.9 mb 0.00 in0.0 mm 0.00 in0.0 mm 0.02 in0.5 mm
09:11 AM 57.5°F14.2°C 50.0°F10.0°C 76% 3.0 mph S4.8 kmh S 16.0 mph25.7 kmh 30.06 in1017.9 mb 0.00 in0.0 mm 0.00 in0.0 mm 0.02 in0.5 mm
09:01 AM 57.5°F14.2°C 50.0°F10.0°C 76% 8.0 mph SE12.9 kmh SE 16.0 mph25.7 kmh 30.06 in1017.9 mb 0.00 in0.0 mm 0.00 in0.0 mm 0.01 in0.3 mm
08:51 AM 57.7°F14.3°C 50.2°F10.1°C 76% 9.0 mph SE14.5 kmh SE 19.0 mph30.6 kmh 30.05 in1017.6 mb 0.00 in0.0 mm 0.00 in0.0 mm 0.01 in0.3 mm
08:41 AM 57.8°F14.3°C 50.6°F10.3°C 77% 10.0 mph S16.1 kmh S 19.0 mph30.6 kmh 30.05 in1017.6 mb 0.00 in0.0 mm 0.00 in0.0 mm 0.01 in0.3 mm
08:31 AM 57.8°F14.3°C 50.6°F10.3°C 77% 11.0 mph SE17.7 kmh SE 16.0 mph25.7 kmh 30.05 in1017.6 mb 0.00 in0.0 mm 0.00 in0.0 mm 0.01 in0.3 mm
08:21 AM 57.7°F14.3°C 50.5°F10.3°C 77% 5.0 mph S8.0 kmh S 16.0 mph25.7 kmh 30.05 in1017.6 mb 0.00 in0.0 mm 0.00 in0.0 mm 0.01 in0.3 mm
08:11 AM 57.7°F14.3°C 50.9°F10.5°C 78% 9.0 mph SE14.5 kmh SE 16.0 mph25.7 kmh 30.04 in1017.3 mb 0.00 in0.0 mm 0.00 in0.0 mm 0.01 in0.3 mm
08:01 AM 58.0°F14.4°C 51.2°F10.7°C 78% 5.0 mph SE8.0 kmh SE 18.0 mph29.0 kmh 30.04 in1017.3 mb 0.00 in0.0 mm 0.00 in0.0 mm 0.00 in0.0 mm
07:51 AM 57.8°F14.3°C 51.0°F10.6°C 78% 8.0 mph SSE12.9 kmh SSE 18.0 mph29.0 kmh 30.03 in1016.9 mb 0.00 in0.0 mm 0.00 in0.0 mm 0.00 in0.0 mm
07:41 AM 57.9°F14.4°C 51.1°F10.6°C 78% 6.0 mph SSE9.7 kmh SSE 17.0 mph27.4 kmh 30.03 in1016.9 mb 0.00 in0.0 mm 0.00 in0.0 mm 0.00 in0.0 mm
07:31 AM 57.9°F14.4°C 51.4°F10.8°C 79% 10.0 mph S16.1 kmh S 17.0 mph27.4 kmh 30.03 in1016.9 mb 0.00 in0.0 mm 0.00 in0.0 mm 0.00 in0.0 mm
07:21 AM 57.4°F14.1°C 50.9°F10.5°C 79% 9.0 mph S14.5 kmh S 17.0 mph27.4 kmh 30.03 in1016.9 mb 0.00 in0.0 mm 0.00 in0.0 mm 0.00 in0.0 mm
07:11 AM 57.0°F13.9°C 50.9°F10.5°C 80% 5.0 mph S8.0 kmh S 17.0 mph27.4 kmh 30.02 in1016.6 mb 0.00 in0.0 mm 0.00 in0.0 mm 0.00 in0.0 mm
07:01 AM 56.5°F13.6°C 50.4°F10.2°C 80% 6.0 mph SW9.7 kmh SW 14.0 mph22.5 kmh 30.02 in1016.6 mb 0.00 in0.0 mm 0.00 in0.0 mm 0.00 in0.0 mm
06:51 AM 55.9°F13.3°C 49.8°F9.9°C 80% 4.0 mph SSW6.4 kmh SSW 14.0 mph22.5 kmh 30.02 in1016.6 mb 0.00 in0.0 mm 0.00 in0.0 mm 0.00 in0.0 mm
06:41 AM 55.8°F13.2°C 49.4°F9.7°C 79% 4.0 mph S6.4 kmh S 14.0 mph22.5 kmh 30.01 in1016.3 mb 0.00 in0.0 mm 0.00 in0.0 mm 0.00 in0.0 mm
06:31 AM 55.8°F13.2°C 49.4°F9.7°C 79% 3.0 mph SW4.8 kmh SW 11.0 mph17.7 kmh 30.01 in1016.3 mb 0.00 in0.0 mm 0.00 in0.0 mm 0.00 in0.0 mm
06:21 AM 55.8°F13.2°C 49.0°F9.4°C 78% 6.0 mph SW9.7 kmh SW 13.0 mph20.9 kmh 30.01 in1016.3 mb 0.00 in0.0 mm 0.00 in0.0 mm 0.00 in0.0 mm
06:11 AM 56.2°F13.4°C 49.1°F9.5°C 77% 4.0 mph SW6.4 kmh SW 13.0 mph20.9 kmh 30.01 in1016.3 mb 0.00 in0.0 mm 0.00 in0.0 mm 0.00 in0.0 mm
06:01 AM 56.5°F13.6°C 49.4°F9.7°C 77% 6.0 mph SW9.7 kmh SW 11.0 mph17.7 kmh 30.00 in1015.9 mb 0.00 in0.0 mm 0.00 in0.0 mm 0.00 in0.0 mm
05:51 AM 56.7°F13.7°C 49.6°F9.8°C 77% 4.0 mph S6.4 kmh S 12.0 mph19.3 kmh 30.00 in1015.9 mb 0.00 in0.0 mm 0.00 in0.0 mm 0.00 in0.0 mm
05:41 AM 56.7°F13.7°C 49.6°F9.8°C 77% 5.0 mph SW8.0 kmh SW 12.0 mph19.3 kmh 29.99 in1015.6 mb 0.00 in0.0 mm 0.00 in0.0 mm 0.00 in0.0 mm
05:31 AM 56.4°F13.6°C 49.3°F9.6°C 77% 5.0 mph SW8.0 kmh SW 5.0 mph8.0 kmh 29.99 in1015.6 mb 0.00 in0.0 mm 0.00 in0.0 mm 0.00 in0.0 mm
05:21 AM 56.4°F13.6°C 48.9°F9.4°C 76% 2.0 mph SW3.2 kmh SW 2.0 mph3.2 kmh 29.99 in1015.6 mb 0.00 in0.0 mm 0.00 in0.0 mm 0.00 in0.0 mm
05:11 AM 56.5°F13.6°C 49.0°F9.4°C 76% Calm Calm 9.0 mph14.5 kmh 29.99 in1015.6 mb 0.00 in0.0 mm 0.00 in0.0 mm 0.00 in0.0 mm
05:01 AM 56.6°F13.7°C 49.1°F9.5°C 76% Calm Calm 9.0 mph14.5 kmh 29.98 in1015.2 mb 0.00 in0.0 mm 0.00 in0.0 mm 0.00 in0.0 mm
04:51 AM 56.6°F13.7°C 48.8°F9.3°C 75% 4.0 mph SW6.4 kmh SW 8.0 mph12.9 kmh 29.98 in1015.2 mb 0.00 in0.0 mm 0.00 in0.0 mm 0.00 in0.0 mm
04:41 AM 56.8°F13.8°C 48.6°F9.2°C 74% Calm Calm 9.0 mph14.5 kmh 29.98 in1015.2 mb 0.00 in0.0 mm 0.00 in0.0 mm 0.00 in0.0 mm
04:31 AM 56.8°F13.8°C 48.2°F9.0°C 73% 7.0 mph S11.3 kmh S 11.0 mph17.7 kmh 29.98 in1015.2 mb 0.00 in0.0 mm 0.00 in0.0 mm 0.00 in0.0 mm
04:21 AM 56.5°F13.6°C 47.6°F8.7°C 72% 3.0 mph SSW4.8 kmh SSW 14.0 mph22.5 kmh 29.97 in1014.9 mb 0.00 in0.0 mm 0.00 in0.0 mm 0.00 in0.0 mm
04:11 AM 56.3°F13.5°C 46.6°F8.1°C 70% 7.0 mph SW11.3 kmh SW 14.0 mph22.5 kmh 29.97 in1014.9 mb 0.00 in0.0 mm 0.00 in0.0 mm 0.00 in0.0 mm
04:01 AM 56.3°F13.5°C 46.3°F7.9°C 69% 4.0 mph WSW6.4 kmh WSW 11.0 mph17.7 kmh 29.97 in1014.9 mb 0.00 in0.0 mm 0.00 in0.0 mm 0.00 in0.0 mm
03:51 AM 56.3°F13.5°C 46.3°F7.9°C 69% 5.0 mph SW8.0 kmh SW 12.0 mph19.3 kmh 29.96 in1014.6 mb 0.00 in0.0 mm 0.00 in0.0 mm 0.00 in0.0 mm
03:41 AM 56.2°F13.4°C 46.2°F7.9°C 69% 7.0 mph WSW11.3 kmh WSW 12.0 mph19.3 kmh 29.96 in1014.6 mb 0.00 in0.0 mm 0.00 in0.0 mm 0.00 in0.0 mm
03:31 AM 56.1°F13.4°C 46.4°F8.0°C 70% 4.0 mph SW6.4 kmh SW 10.0 mph16.1 kmh 29.96 in1014.6 mb 0.00 in0.0 mm 0.00 in0.0 mm 0.00 in0.0 mm
03:21 AM 56.2°F13.4°C 46.5°F8.1°C 70% 6.0 mph SW9.7 kmh SW 11.0 mph17.7 kmh 29.95 in1014.2 mb 0.00 in0.0 mm 0.00 in0.0 mm 0.00 in0.0 mm
03:11 AM 56.4°F13.6°C 46.7°F8.2°C 70% 3.0 mph WSW4.8 kmh WSW 11.0 mph17.7 kmh 29.95 in1014.2 mb 0.00 in0.0 mm 0.00 in0.0 mm 0.00 in0.0 mm
03:01 AM 56.6°F13.7°C 46.9°F8.3°C 70% 4.0 mph SW6.4 kmh SW 9.0 mph14.5 kmh 29.95 in1014.2 mb 0.00 in0.0 mm 0.00 in0.0 mm 0.00 in0.0 mm
02:51 AM 56.8°F13.8°C 47.1°F8.4°C 70% 5.0 mph SW8.0 kmh SW 8.0 mph12.9 kmh 29.95 in1014.2 mb 0.00 in0.0 mm 0.00 in0.0 mm 0.00 in0.0 mm
02:41 AM 57.2°F14.0°C 47.5°F8.6°C 70% 5.0 mph SW8.0 kmh SW 12.0 mph19.3 kmh 29.95 in1014.2 mb 0.00 in0.0 mm 0.00 in0.0 mm 0.00 in0.0 mm
02:31 AM 57.5°F14.2°C 47.4°F8.6°C 69% 9.0 mph SSW14.5 kmh SSW 12.0 mph19.3 kmh 29.95 in1014.2 mb 0.00 in0.0 mm 0.00 in0.0 mm 0.00 in0.0 mm
02:21 AM 57.7°F14.3°C 47.2°F8.4°C 68% 6.0 mph SW9.7 kmh SW 9.0 mph14.5 kmh 29.95 in1014.2 mb 0.00 in0.0 mm 0.00 in0.0 mm 0.00 in0.0 mm
02:11 AM 58.0°F14.4°C 46.7°F8.2°C 66% 3.0 mph SW4.8 kmh SW 10.0 mph16.1 kmh 29.95 in1014.2 mb 0.00 in0.0 mm 0.00 in0.0 mm 0.00 in0.0 mm
02:01 AM 58.4°F14.7°C 46.7°F8.2°C 65% 3.0 mph SW4.8 kmh SW 13.0 mph20.9 kmh 29.95 in1014.2 mb 0.00 in0.0 mm 0.00 in0.0 mm 0.00 in0.0 mm
01:51 AM 58.7°F14.8°C 46.1°F7.8°C 63% 4.0 mph SW6.4 kmh SW 13.0 mph20.9 kmh 29.95 in1014.2 mb 0.00 in0.0 mm 0.00 in0.0 mm 0.00 in0.0 mm
01:41 AM 59.0°F15.0°C 45.1°F7.3°C 60% 10.0 mph S16.1 kmh S 12.0 mph19.3 kmh 29.96 in1014.6 mb 0.00 in0.0 mm 0.00 in0.0 mm 0.00 in0.0 mm
01:31 AM 59.3°F15.2°C 44.1°F6.7°C 57% 7.0 mph SW11.3 kmh SW 15.0 mph24.1 kmh 29.96 in1014.6 mb 0.00 in0.0 mm 0.00 in0.0 mm 0.00 in0.0 mm
01:21 AM 59.4°F15.2°C 44.2°F6.8°C 57% 8.0 mph SSW12.9 kmh SSW 15.0 mph24.1 kmh 29.96 in1014.6 mb 0.00 in0.0 mm 0.00 in0.0 mm 0.00 in0.0 mm
01:11 AM 59.8°F15.4°C 44.1°F6.7°C 56% 5.0 mph SW8.0 kmh SW 12.0 mph19.3 kmh 29.96 in1014.6 mb 0.00 in0.0 mm 0.00 in0.0 mm 0.00 in0.0 mm
01:01 AM 60.6°F15.9°C 43.9°F6.6°C 54% 5.0 mph SE8.0 kmh SE 16.0 mph25.7 kmh 29.96 in1014.6 mb 0.00 in0.0 mm 0.00 in0.0 mm 0.00 in0.0 mm
12:51 AM 61.0°F16.1°C 43.2°F6.2°C 52% 8.0 mph S12.9 kmh S 20.0 mph32.2 kmh 29.96 in1014.6 mb 0.00 in0.0 mm 0.00 in0.0 mm 0.00 in0.0 mm
12:41 AM 61.0°F16.1°C 43.2°F6.2°C 52% 9.0 mph SSW14.5 kmh SSW 20.0 mph32.2 kmh 29.96 in1014.6 mb 0.00 in0.0 mm 0.00 in0.0 mm 0.00 in0.0 mm
12:31 AM 61.1°F16.2°C 44.3°F6.8°C 54% 6.0 mph SE9.7 kmh SE 20.0 mph32.2 kmh 29.95 in1014.2 mb 0.00 in0.0 mm 0.00 in0.0 mm 0.00 in0.0 mm
12:21 AM 61.3°F16.3°C 46.4°F8.0°C 58% 8.0 mph S12.9 kmh S 20.0 mph32.2 kmh 29.95 in1014.2 mb 0.00 in0.0 mm 0.00 in0.0 mm 0.00 in0.0 mm
12:11 AM 61.4°F16.3°C 47.8°F8.8°C 61% 6.0 mph WSW9.7 kmh WSW 18.0 mph29.0 kmh 29.95 in1014.2 mb 0.00 in0.0 mm 0.00 in0.0 mm 0.00 in0.0 mm
12:01 AM 61.5°F16.4°C 48.4°F9.1°C 62% 9.0 mph S14.5 kmh S 18.0 mph29.0 kmh 29.95 in1014.2 mb 0.00 in0.0 mm 0.00 in0.0 mm 0.00 in0.0 mm